createdAt,value
2022-09-28T00:02:25.653Z,97393.47
2022-09-28T00:04:52.555Z,97379.66
2022-09-28T00:07:19.521Z,97388.63
2022-09-28T00:09:46.269Z,97388.63
2022-09-28T00:12:13.064Z,97390.81
2022-09-28T00:14:40.689Z,97389.44
2022-09-28T00:17:08.346Z,97381.59
2022-09-28T00:19:35.180Z,97381.84
2022-09-28T00:22:01.963Z,97377.81
2022-09-28T00:24:29.609Z,97381.31
2022-09-28T00:26:58.145Z,97369.69
2022-09-28T00:29:31.753Z,97370.22
2022-09-28T00:32:03.025Z,97369.94
2022-09-28T00:34:32.710Z,97372.94
2022-09-28T00:37:01.406Z,97365.09
2022-09-28T00:39:28.545Z,97358.03
2022-09-28T00:41:55.249Z,97361.28
2022-09-28T00:44:42.280Z,97364.00
2022-09-28T00:47:27.522Z,97372.13
2022-09-28T00:50:18.383Z,97366.72
2022-09-28T00:52:59.774Z,97358.34
2022-09-28T00:55:46.572Z,97347.25
2022-09-28T00:58:18.284Z,97349.94
2022-09-28T01:00:45.121Z,97358.59
2022-09-28T01:03:14.336Z,97353.47
2022-09-28T01:05:41.508Z,97355.38
2022-09-28T01:08:10.099Z,97351.03
2022-09-28T01:10:36.903Z,97352.41
2022-09-28T01:13:03.735Z,97350.50
2022-09-28T01:15:40.174Z,97353.78
2022-09-28T01:18:49.267Z,97363.53
2022-09-28T01:21:21.289Z,97357.56
2022-09-28T01:23:56.952Z,97353.25
2022-09-28T01:26:36.521Z,97351.06
2022-09-28T01:29:13.586Z,97350.00
2022-09-28T01:31:44.340Z,97353.22
2022-09-28T01:34:18.193Z,97355.94
2022-09-28T01:36:55.804Z,97352.16
2022-09-28T01:39:42.780Z,97349.72
2022-09-28T01:42:16.973Z,97347.53
2022-09-28T01:44:48.447Z,97348.63
2022-09-28T01:47:23.712Z,97347.81
2022-09-28T01:50:03.173Z,97348.34
2022-09-28T01:52:40.636Z,97360.00
2022-09-28T01:55:17.545Z,97358.09
2022-09-28T01:58:02.149Z,97346.72
2022-09-28T02:00:29.598Z,97345.66
2022-09-28T02:02:56.427Z,97350.78
2022-09-28T02:05:31.366Z,97348.06
2022-09-28T02:08:14.585Z,97346.19
2022-09-28T02:10:51.196Z,97345.91
2022-09-28T02:13:28.045Z,97347.53
2022-09-28T02:16:04.021Z,97343.75
2022-09-28T02:18:31.199Z,97351.88
2022-09-28T02:21:09.334Z,97355.94
2022-09-28T02:23:39.822Z,97351.06
2022-09-28T02:26:14.064Z,97355.38
2022-09-28T02:28:40.988Z,97362.44
2022-09-28T02:31:07.833Z,97377.06
2022-09-28T02:33:38.558Z,97373.81
2022-09-28T02:36:06.396Z,97376.53
2022-09-28T02:38:33.298Z,97363.53
2022-09-28T02:41:05.855Z,97353.00
2022-09-28T02:43:38.249Z,97361.69
2022-09-28T02:46:23.478Z,97356.81
2022-09-28T02:49:22.413Z,97354.91
2022-09-28T02:52:06.715Z,97353.56
2022-09-28T02:55:29.689Z,97352.25
2022-09-28T02:58:05.224Z,97336.28
2022-09-28T03:00:37.238Z,97334.94
2022-09-28T03:03:18.039Z,97342.50
2022-09-28T03:05:54.099Z,97343.06
2022-09-28T03:08:32.686Z,97346.31
2022-09-28T03:11:07.724Z,97340.63
2022-09-28T03:13:35.420Z,97338.47
2022-09-28T03:16:16.611Z,97337.66
2022-09-28T03:18:44.007Z,97344.16
2022-09-28T03:21:15.214Z,97345.75
2022-09-28T03:23:42.615Z,97339.53
2022-09-28T03:26:11.756Z,97333.59
2022-09-28T03:28:38.943Z,97336.03
2022-09-28T03:31:06.001Z,97340.34
2022-09-28T03:33:32.793Z,97350.63
2022-09-28T03:35:59.589Z,97343.88
2022-09-28T03:38:26.390Z,97346.31
2022-09-28T03:40:58.181Z,97352.00
2022-09-28T03:43:26.267Z,97348.47
2022-09-28T03:45:57.780Z,97344.44
2022-09-28T03:48:31.873Z,97348.47
2022-09-28T03:51:05.437Z,97349.56
2022-09-28T03:53:33.147Z,97346.03
2022-09-28T03:56:08.289Z,97344.69
2022-09-28T03:58:35.363Z,97354.97
2022-09-28T04:01:07.806Z,97354.44
2022-09-28T04:03:35.353Z,97340.91
2022-09-28T04:06:02.072Z,97341.72
2022-09-28T04:08:29.037Z,97341.16
2022-09-28T04:11:00.165Z,97340.34
2022-09-28T04:13:28.320Z,97339.81
2022-09-28T04:15:57.056Z,97342.50
2022-09-28T04:18:24.513Z,97335.47
2022-09-28T04:21:06.871Z,97334.69
2022-09-28T04:23:38.686Z,97325.72
2022-09-28T04:26:07.597Z,97327.63
2022-09-28T04:28:53.031Z,97328.19
2022-09-28T04:31:23.038Z,97326.03
2022-09-28T04:33:49.884Z,97334.41
2022-09-28T04:36:17.637Z,97327.38
2022-09-28T04:38:59.601Z,97326.84
2022-09-28T04:41:26.800Z,97321.97
2022-09-28T04:43:53.621Z,97327.66
2022-09-28T04:46:20.450Z,97323.06
2022-09-28T04:48:47.390Z,97316.56
2022-09-28T04:51:14.234Z,97316.28
2022-09-28T04:53:40.956Z,97313.28
2022-09-28T04:56:11.043Z,97307.34
2022-09-28T04:58:38.523Z,97310.31
2022-09-28T05:01:07.991Z,97304.09
2022-09-28T05:03:35.091Z,97302.75
2022-09-28T05:06:01.855Z,97298.97
2022-09-28T05:08:28.914Z,97304.63
2022-09-28T05:11:05.252Z,97297.06
2022-09-28T05:13:35.716Z,97294.13
2022-09-28T05:16:05.362Z,97295.47
2022-09-28T05:18:32.632Z,97292.75
2022-09-28T05:20:59.487Z,97292.47
2022-09-28T05:23:26.231Z,97282.19
2022-09-28T05:25:53.100Z,97281.91
2022-09-28T05:28:26.450Z,97276.22
2022-09-28T05:30:53.489Z,97280.00
2022-09-28T05:33:20.589Z,97274.84
2022-09-28T05:35:52.394Z,97279.44
2022-09-28T05:38:20.857Z,97279.19
2022-09-28T05:40:47.784Z,97281.31
2022-09-28T05:43:14.895Z,97275.62
2022-09-28T05:45:41.698Z,97270.47
2022-09-28T05:48:08.741Z,97279.41
2022-09-28T05:50:35.878Z,97288.06
2022-09-28T05:53:05.846Z,97289.41
2022-09-28T05:55:33.349Z,97288.03
2022-09-28T05:58:01.805Z,97269.91
2022-09-28T06:00:29.588Z,97268.28
2022-09-28T06:03:12.286Z,97252.56
2022-09-28T06:05:39.889Z,97256.63
2022-09-28T06:08:10.351Z,97259.06
2022-09-28T06:10:37.257Z,97258.50
2022-09-28T06:13:04.616Z,97254.69
2022-09-28T06:15:32.871Z,97248.19
2022-09-28T06:18:03.275Z,97257.66
2022-09-28T06:20:32.946Z,97252.78
2022-09-28T06:22:59.722Z,97264.94
2022-09-28T06:25:29.837Z,97259.25
2022-09-28T06:28:05.251Z,97267.66
2022-09-28T06:30:34.046Z,97264.66
2022-09-28T06:33:02.068Z,97263.59
2022-09-28T06:35:30.799Z,97258.69
2022-09-28T06:38:01.275Z,97256.22
2022-09-28T06:40:28.914Z,97262.19
2022-09-28T06:43:02.759Z,97259.72
2022-09-28T06:45:30.712Z,97264.56
2022-09-28T06:48:01.413Z,97262.69
2022-09-28T06:50:32.451Z,97247.75
2022-09-28T06:53:00.820Z,97246.94
2022-09-28T06:55:28.976Z,97248.00
2022-09-28T06:58:00.500Z,97255.03
2022-09-28T07:00:28.567Z,97263.41
2022-09-28T07:02:55.363Z,97258.53
2022-09-28T07:05:26.762Z,97253.34
2022-09-28T07:07:57.389Z,97257.69
2022-09-28T07:10:25.616Z,97255.50
2022-09-28T07:12:52.416Z,97251.41
2022-09-28T07:15:20.459Z,97254.66
2022-09-28T07:17:59.038Z,97245.97
2022-09-28T07:20:29.895Z,97239.50
2022-09-28T07:23:09.717Z,97239.47
2022-09-28T07:25:45.539Z,97235.38
2022-09-28T07:28:12.345Z,97243.75
2022-09-28T07:30:39.389Z,97233.94
2022-09-28T07:33:07.806Z,97242.31
2022-09-28T07:35:34.587Z,97234.75
2022-09-28T07:38:03.910Z,97237.97
2022-09-28T07:40:50.935Z,97227.88
2022-09-28T07:43:20.856Z,97225.13
2022-09-28T07:45:52.924Z,97222.66
2022-09-28T07:48:20.159Z,97215.56
2022-09-28T07:50:51.893Z,97215.81
2022-09-28T07:53:20.293Z,97222.28
2022-09-28T07:55:55.047Z,97206.78
2022-09-28T07:58:21.903Z,97211.34
2022-09-28T08:00:50.049Z,97211.84
2022-09-28T08:03:18.324Z,97216.41
2022-09-28T08:05:46.913Z,97222.41
2022-09-28T08:08:14.694Z,97235.38
2022-09-28T08:10:47.120Z,97233.72
2022-09-28T08:13:15.269Z,97230.44
2022-09-28T08:15:42.715Z,97221.69
2022-09-28T08:18:09.860Z,97217.31
2022-09-28T08:20:55.618Z,97216.72
2022-09-28T08:23:23.371Z,97207.75
2022-09-28T08:25:54.124Z,97212.03
2022-09-28T08:28:23.237Z,97206.22
2022-09-28T08:30:51.067Z,97206.75
2022-09-28T08:33:20.389Z,97202.06
2022-09-28T08:35:48.344Z,97195.78
2022-09-28T08:38:15.593Z,97201.16
2022-09-28T08:40:57.635Z,97190.72
2022-09-28T08:43:55.847Z,97192.88
2022-09-28T08:46:27.230Z,97194.44
2022-09-28T08:52:03.366Z,97186.66
2022-09-28T08:54:49.122Z,97186.00
2022-09-28T08:57:23.115Z,97175.91
2022-09-28T08:59:53.627Z,97180.97
2022-09-28T09:02:36.266Z,97179.78
2022-09-28T09:05:06.285Z,97176.69
2022-09-28T09:07:54.575Z,97174.13
2022-09-28T09:10:28.696Z,97178.88
2022-09-28T09:13:04.616Z,97180.09
2022-09-28T09:15:57.587Z,97177.53
2022-09-28T09:18:37.550Z,97182.81
2022-09-28T09:21:17.613Z,97184.34
2022-09-28T09:23:53.980Z,97181.25
2022-09-28T09:26:34.753Z,97176.50
2022-09-28T09:29:01.417Z,97176.41
2022-09-28T09:32:03.156Z,97170.06
2022-09-28T09:35:19.218Z,97170.28
2022-09-28T09:37:59.554Z,97160.41
2022-09-28T09:40:56.756Z,97162.53
2022-09-28T09:43:38.929Z,97161.94
2022-09-28T09:46:05.779Z,97171.91
2022-09-28T09:48:51.485Z,97164.75
2022-09-28T09:51:43.981Z,97171.25
2022-09-28T09:54:42.482Z,97152.69
2022-09-28T09:57:20.383Z,97150.75
2022-09-28T09:59:49.167Z,97153.19
2022-09-28T10:02:28.879Z,97155.59
2022-09-28T10:05:20.977Z,97143.91
2022-09-28T10:08:24.049Z,97145.22
2022-09-28T10:11:05.705Z,97149.25
2022-09-28T10:13:32.971Z,97148.34
2022-09-28T10:16:00.836Z,97147.44
2022-09-28T10:18:28.456Z,97140.81
2022-09-28T10:20:55.233Z,97143.13
2022-09-28T10:23:28.798Z,97142.19
2022-09-28T10:26:03.173Z,97131.19
2022-09-28T10:29:04.259Z,97130.78
2022-09-28T10:31:37.244Z,97129.25
2022-09-28T10:34:05.708Z,97125.78
2022-09-28T10:36:38.695Z,97127.00
2022-09-28T10:39:06.237Z,97109.91
2022-09-28T10:41:33.019Z,97101.78
2022-09-28T10:44:06.534Z,97095.91
2022-09-28T10:46:35.221Z,97090.81
2022-09-28T10:49:06.974Z,97087.66
2022-09-28T10:51:53.543Z,97095.41
2022-09-28T10:54:21.429Z,97096.59
2022-09-28T10:56:49.350Z,97090.69
2022-09-28T10:59:37.173Z,97076.09
2022-09-28T11:02:13.117Z,97077.88
2022-09-28T11:04:50.050Z,97067.69
2022-09-28T11:07:24.865Z,97072.22
2022-09-28T11:09:54.607Z,97071.44
2022-09-28T11:12:26.444Z,97063.41
2022-09-28T11:15:00.743Z,97061.88
2022-09-28T11:17:40.672Z,97061.22
2022-09-28T11:20:28.618Z,97072.19
2022-09-28T11:23:20.641Z,97075.06
2022-09-28T11:26:04.612Z,97061.91
2022-09-28T11:28:39.320Z,97068.53
2022-09-28T11:31:08.216Z,97068.06
2022-09-28T11:33:38.850Z,97059.72
2022-09-28T11:36:34.846Z,97066.16
2022-09-28T11:39:18.048Z,97058.81
2022-09-28T11:42:26.564Z,97057.53
2022-09-28T11:45:35.233Z,97056.41
2022-09-28T11:48:05.978Z,97061.09
2022-09-28T11:50:44.750Z,97061.41
2022-09-28T11:53:43.497Z,97072.19
2022-09-28T11:56:35.453Z,97073.69
2022-09-28T11:59:12.616Z,97056.81
2022-09-28T12:02:02.250Z,97060.50
2022-09-28T12:04:38.210Z,97066.59
2022-09-28T12:07:18.967Z,97065.94
2022-09-28T12:09:53.909Z,97061.75
2022-09-28T12:12:34.689Z,97068.22
2022-09-28T12:15:12.886Z,97061.78
2022-09-28T12:17:45.886Z,97064.81
2022-09-28T12:20:29.595Z,97055.97
2022-09-28T12:23:05.697Z,97052.25
2022-09-28T12:25:58.309Z,97057.25
2022-09-28T12:28:42.161Z,97056.59
2022-09-28T12:31:17.405Z,97065.44
2022-09-28T12:33:48.165Z,97065.13
2022-09-28T12:36:21.055Z,97066.37
2022-09-28T12:39:18.910Z,97068.81
2022-09-28T12:42:27.708Z,97070.09
2022-09-28T12:45:12.841Z,97068.97
2022-09-28T12:48:09.279Z,97064.78
2022-09-28T12:50:57.105Z,97053.50
2022-09-28T12:53:33.237Z,97056.72
2022-09-28T12:56:21.937Z,97055.91
2022-09-28T12:59:27.501Z,97053.97
2022-09-28T13:02:27.493Z,97054.47
2022-09-28T13:05:16.182Z,97052.06
2022-09-28T13:08:14.212Z,97053.31
2022-09-28T13:11:06.976Z,97052.66
2022-09-28T13:13:40.390Z,97041.06
2022-09-28T13:16:34.943Z,97039.59
2022-09-28T13:19:18.034Z,97039.13
2022-09-28T13:21:56.987Z,97044.72
2022-09-28T13:24:33.339Z,97034.44
2022-09-28T13:27:11.988Z,97028.28
2022-09-28T13:29:40.887Z,97031.97
2022-09-28T13:32:09.885Z,97036.78
2022-09-28T13:34:38.381Z,97033.72
2022-09-28T13:37:07.873Z,97036.13
2022-09-28T13:39:45.574Z,97033.56
2022-09-28T13:42:47.875Z,97037.56
2022-09-28T13:45:20.757Z,97035.63
2022-09-28T13:47:50.656Z,97036.09
2022-09-28T13:50:39.328Z,97027.09
2022-09-28T13:53:19.296Z,97041.59
2022-09-28T13:56:24.601Z,97022.41
2022-09-28T13:59:00.197Z,97039.19
2022-09-28T14:01:38.322Z,97028.56
2022-09-28T14:04:19.214Z,97038.03
2022-09-28T14:07:08.574Z,97041.91
2022-09-28T14:09:48.547Z,97040.78
2022-09-28T14:12:45.903Z,97044.31
2022-09-28T14:15:37.843Z,97041.91
2022-09-28T14:18:10.289Z,97036.44
2022-09-28T14:20:37.553Z,97039.19
2022-09-28T14:23:21.333Z,97044.19
2022-09-28T14:26:21.087Z,97041.78
2022-09-28T14:28:56.904Z,97038.56
2022-09-28T14:31:29.004Z,97036.13
2022-09-28T14:33:59.138Z,97024.69
2022-09-28T14:36:49.365Z,97020.34
2022-09-28T14:40:05.061Z,97017.81
2022-09-28T14:42:32.646Z,97014.59
2022-09-28T14:45:06.170Z,97017.34
2022-09-28T14:47:34.074Z,97025.09
2022-09-28T14:50:17.841Z,97032.16
2022-09-28T14:52:54.234Z,97025.38
2022-09-28T14:55:29.118Z,97028.44
2022-09-28T14:57:58.752Z,97030.72
2022-09-28T15:00:30.429Z,97037.66
2022-09-28T15:03:04.253Z,97036.03
2022-09-28T15:05:44.016Z,97033.94
2022-09-28T15:08:12.080Z,97032.34
2022-09-28T15:10:47.277Z,97042.47
2022-09-28T15:13:28.579Z,97045.22
2022-09-28T15:16:04.017Z,97046.69
2022-09-28T15:18:42.706Z,97048.12
2022-09-28T15:21:13.634Z,97048.12
2022-09-28T15:23:44.122Z,97049.28
2022-09-28T15:26:27.508Z,97043.00
2022-09-28T15:28:55.079Z,97044.13
2022-09-28T15:31:25.625Z,97039.31
2022-09-28T15:34:11.851Z,97042.38
2022-09-28T15:36:41.262Z,97048.66
2022-09-28T15:39:17.960Z,97039.16
2022-09-28T15:41:48.603Z,97037.56
2022-09-28T15:44:15.371Z,97043.03
2022-09-28T15:46:47.925Z,97051.56
2022-09-28T15:49:29.077Z,97050.78
2022-09-28T15:51:56.205Z,97049.16
2022-09-28T15:54:43.411Z,97055.78
2022-09-28T15:57:33.146Z,97060.78
2022-09-28T16:00:00.905Z,97056.41
2022-09-28T16:02:27.944Z,97051.25
2022-09-28T16:05:00.955Z,97055.44
2022-09-28T16:07:40.742Z,97052.72
2022-09-28T16:10:13.665Z,97056.56
2022-09-28T16:12:40.357Z,97056.09
2022-09-28T16:15:37.330Z,97058.03
2022-09-28T16:18:13.149Z,97052.09
2022-09-28T16:20:41.161Z,97053.22
2022-09-28T16:23:17.024Z,97053.22
2022-09-28T16:25:58.901Z,97049.66
2022-09-28T16:28:35.067Z,97049.19
2022-09-28T16:31:29.738Z,97052.25
2022-09-28T16:33:59.643Z,97047.44
2022-09-28T16:36:29.978Z,97052.09
2022-09-28T16:38:57.140Z,97050.50
2022-09-28T16:41:27.379Z,97047.28
2022-09-28T16:43:59.316Z,97049.50
2022-09-28T16:46:31.865Z,97043.56
2022-09-28T16:48:59.894Z,97038.41
2022-09-28T16:51:26.617Z,97036.81
2022-09-28T16:54:31.900Z,97039.88
2022-09-28T16:56:58.852Z,97041.34
2022-09-28T16:59:26.082Z,97040.53
2022-09-28T17:01:53.134Z,97048.25
2022-09-28T17:04:20.035Z,97044.72
2022-09-28T17:06:46.898Z,97036.03
2022-09-28T17:09:13.730Z,97044.25
2022-09-28T17:11:40.554Z,97043.28
2022-09-28T17:14:08.851Z,97042.81
2022-09-28T17:17:06.223Z,97048.09
2022-09-28T17:19:25.830Z,97046.19
2022-09-28T17:21:53.154Z,97043.75
2022-09-28T17:24:20.376Z,97043.59
2022-09-28T17:26:49.962Z,97045.53
2022-09-28T17:29:17.411Z,97038.78
2022-09-28T17:31:45.347Z,97038.63
2022-09-28T17:34:15.261Z,97043.59
2022-09-28T17:36:42.799Z,97041.69
2022-09-28T17:39:14.536Z,97043.13
2022-09-28T17:41:41.817Z,97041.53
2022-09-28T17:44:08.834Z,97040.41
2022-09-28T17:46:37.178Z,97043.78
2022-09-28T17:49:05.963Z,97046.84
2022-09-28T17:51:35.436Z,97042.81
2022-09-28T17:54:02.352Z,97044.56
2022-09-28T17:56:32.418Z,97046.78
2022-09-28T17:59:05.628Z,97053.38
2022-09-28T18:01:37.218Z,97056.59
2022-09-28T18:04:05.850Z,97059.66
2022-09-28T18:06:37.283Z,97067.53
2022-09-28T18:09:05.219Z,97059.66
2022-09-28T18:11:33.160Z,97064.31
2022-09-28T18:14:00.104Z,97068.97
2022-09-28T18:16:28.987Z,97066.06
2022-09-28T18:18:56.665Z,97074.59
2022-09-28T18:21:23.504Z,97073.00
2022-09-28T18:23:50.596Z,97074.94
2022-09-28T18:26:19.750Z,97072.50
2022-09-28T18:28:46.796Z,97079.09
2022-09-28T18:31:15.601Z,97081.03
2022-09-28T18:33:43.429Z,97084.91
2022-09-28T18:36:10.471Z,97094.22
2022-09-28T18:38:38.239Z,97091.81
2022-09-28T18:41:08.932Z,97091.00
2022-09-28T18:43:36.642Z,97100.31
2022-09-28T18:46:09.452Z,97093.53
2022-09-28T18:48:38.075Z,97094.19
2022-09-28T18:51:09.306Z,97097.22
2022-09-28T18:53:36.847Z,97097.56
2022-09-28T18:56:09.504Z,97095.63
2022-09-28T18:58:38.658Z,97106.06
2022-09-28T19:01:29.061Z,97102.22
2022-09-28T19:03:56.629Z,97099.81
2022-09-28T19:06:23.641Z,97098.03
2022-09-28T19:08:55.745Z,97096.41
2022-09-28T19:11:23.501Z,97100.28
2022-09-28T19:13:50.702Z,97107.50
2022-09-28T19:16:21.062Z,97111.34
2022-09-28T19:18:48.908Z,97106.22
2022-09-28T19:21:15.999Z,97116.66
2022-09-28T19:23:48.952Z,97111.47
2022-09-28T19:26:20.945Z,97114.53
2022-09-28T19:28:48.253Z,97112.44
2022-09-28T19:31:15.738Z,97120.16
2022-09-28T19:33:43.837Z,97123.34
2022-09-28T19:36:16.698Z,97113.56
2022-09-28T19:38:43.415Z,97112.75
2022-09-28T19:41:12.214Z,97115.81
2022-09-28T19:43:39.153Z,97115.47
2022-09-28T19:46:07.256Z,97118.84
2022-09-28T19:48:35.637Z,97117.72
2022-09-28T19:51:05.647Z,97118.53
2022-09-28T19:53:36.695Z,97112.25
2022-09-28T19:56:07.949Z,97105.69
2022-09-28T19:58:36.778Z,97105.69
2022-09-28T20:01:07.382Z,97108.72
2022-09-28T20:03:34.819Z,97120.94
2022-09-28T20:06:02.555Z,97115.00
2022-09-28T20:08:32.313Z,97119.66
2022-09-28T20:10:59.899Z,97110.66
2022-09-28T20:13:35.630Z,97105.03
2022-09-28T20:16:10.537Z,97106.94
2022-09-28T20:18:44.121Z,97110.81
2022-09-28T20:21:18.104Z,97105.03
2022-09-28T20:23:45.806Z,97110.31
2022-09-28T20:26:13.299Z,97107.91
2022-09-28T20:28:40.823Z,97110.63
2022-09-28T20:31:09.068Z,97120.75
2022-09-28T20:33:36.269Z,97129.44
2022-09-28T20:36:07.497Z,97137.94
2022-09-28T20:38:34.508Z,97128.63
2022-09-28T20:41:01.887Z,97129.44
2022-09-28T20:43:32.196Z,97140.84
2022-09-28T20:45:58.998Z,97133.59
2022-09-28T20:48:26.411Z,97135.22
2022-09-28T20:51:03.069Z,97128.47
2022-09-28T20:53:33.390Z,97136.34
2022-09-28T20:56:01.599Z,97138.25
2022-09-28T20:58:29.065Z,97140.19
2022-09-28T21:01:08.171Z,97137.94
2022-09-28T21:03:35.738Z,97142.91
2022-09-28T21:06:03.557Z,97144.84
2022-09-28T21:08:31.116Z,97146.78
2022-09-28T21:10:58.179Z,97145.44
2022-09-28T21:13:26.359Z,97143.34
2022-09-28T21:15:53.309Z,97144.97
2022-09-28T21:18:21.109Z,97139.19
2022-09-28T21:20:51.663Z,97141.75
2022-09-28T21:23:24.519Z,97137.41
2022-09-28T21:26:01.916Z,97138.22
2022-09-28T21:28:28.670Z,97142.37
2022-09-28T21:30:55.720Z,97143.50
2022-09-28T21:33:22.547Z,97145.09
2022-09-28T21:35:49.309Z,97138.84
2022-09-28T21:38:16.594Z,97141.41
2022-09-28T21:40:43.817Z,97139.78
2022-09-28T21:43:10.887Z,97135.94
2022-09-28T21:45:38.780Z,97137.84
2022-09-28T21:48:05.647Z,97138.50
2022-09-28T21:50:32.654Z,97140.41
2022-09-28T21:53:00.327Z,97136.88
2022-09-28T21:55:27.161Z,97139.91
2022-09-28T21:57:54.098Z,97137.69
2022-09-28T22:00:23.318Z,97134.94
2022-09-28T22:02:50.820Z,97144.25
2022-09-28T22:05:19.285Z,97135.44
2022-09-28T22:07:46.126Z,97137.69
2022-09-28T22:10:14.728Z,97142.50
2022-09-28T22:12:41.999Z,97136.25
2022-09-28T22:15:09.998Z,97137.69
2022-09-28T22:17:37.067Z,97144.91
2022-09-28T22:20:04.761Z,97153.09
2022-09-28T22:22:31.558Z,97150.03
2022-09-28T22:24:58.410Z,97150.84
2022-09-28T22:27:25.250Z,97155.00
2022-09-28T22:29:52.070Z,97155.31
2022-09-28T22:32:18.948Z,97151.78
2022-09-28T22:34:45.859Z,97157.53
2022-09-28T22:37:12.660Z,97149.34
2022-09-28T22:39:41.112Z,97150.47
2022-09-28T22:42:08.401Z,97157.03
2022-09-28T22:44:36.047Z,97156.56
2022-09-28T22:47:03.654Z,97161.19
2022-09-28T22:49:31.676Z,97167.78
2022-09-28T22:51:58.505Z,97169.72
2022-09-28T22:54:25.283Z,97176.47
2022-09-28T22:56:52.054Z,97175.56
2022-09-28T22:59:18.974Z,97174.22
2022-09-28T23:01:45.860Z,97176.94
2022-09-28T23:04:12.850Z,97183.03
2022-09-28T23:06:39.610Z,97186.09
2022-09-28T23:09:06.572Z,97186.09
2022-09-28T23:11:33.370Z,97180.44
2022-09-28T23:14:00.445Z,97183.19
2022-09-28T23:16:27.460Z,97181.87
2022-09-28T23:18:55.362Z,97192.31
2022-09-28T23:21:25.314Z,97191.00
2022-09-28T23:24:03.143Z,97196.78
2022-09-28T23:26:32.521Z,97188.09
2022-09-28T23:28:59.814Z,97191.69
2022-09-28T23:31:29.731Z,97185.75
2022-09-28T23:34:06.632Z,97193.75
2022-09-28T23:36:34.308Z,97203.84
2022-09-28T23:39:01.249Z,97200.94
2022-09-28T23:41:28.046Z,97202.88
2022-09-28T23:43:54.839Z,97207.03
2022-09-28T23:46:21.700Z,97204.09
2022-09-28T23:48:49.359Z,97206.53
2022-09-28T23:51:16.107Z,97211.50
2022-09-28T23:53:43.396Z,97220.28
2022-09-28T23:56:10.477Z,97220.59
2022-09-28T23:58:37.290Z,97221.50
